sensor_id;sensor_type;location;lat;lon;timestamp;P1;durP1;ratioP1;P2;durP2;ratioP2
68168;SDS011;54981;50.206;15.978;2023-08-21T00:01:16;21.75;;;19.75;;
68168;SDS011;54981;50.206;15.978;2023-08-21T00:03:46;20.50;;;18.45;;
68168;SDS011;54981;50.206;15.978;2023-08-21T00:06:17;23.67;;;21.40;;
68168;SDS011;54981;50.206;15.978;2023-08-21T00:08:47;23.88;;;21.85;;
68168;SDS011;54981;50.206;15.978;2023-08-21T00:11:18;20.77;;;18.98;;
68168;SDS011;54981;50.206;15.978;2023-08-21T00:13:48;20.65;;;18.85;;
68168;SDS011;54981;50.206;15.978;2023-08-21T00:16:19;21.42;;;19.63;;
68168;SDS011;54981;50.206;15.978;2023-08-21T00:18:49;22.48;;;20.38;;
68168;SDS011;54981;50.206;15.978;2023-08-21T00:21:20;21.33;;;19.52;;
68168;SDS011;54981;50.206;15.978;2023-08-21T00:23:50;22.15;;;20.00;;
68168;SDS011;54981;50.206;15.978;2023-08-21T00:26:20;21.58;;;19.48;;
68168;SDS011;54981;50.206;15.978;2023-08-21T00:28:51;20.88;;;18.92;;
68168;SDS011;54981;50.206;15.978;2023-08-21T00:31:21;20.98;;;19.17;;
68168;SDS011;54981;50.206;15.978;2023-08-21T00:33:52;21.70;;;19.80;;
68168;SDS011;54981;50.206;15.978;2023-08-21T00:36:22;21.40;;;19.50;;
68168;SDS011;54981;50.206;15.978;2023-08-21T00:38:52;21.40;;;19.45;;
68168;SDS011;54981;50.206;15.978;2023-08-21T00:41:23;21.15;;;19.15;;
68168;SDS011;54981;50.206;15.978;2023-08-21T00:43:54;21.65;;;19.23;;
68168;SDS011;54981;50.206;15.978;2023-08-21T00:46:24;20.63;;;18.83;;
68168;SDS011;54981;50.206;15.978;2023-08-21T00:48:55;20.45;;;18.67;;
68168;SDS011;54981;50.206;15.978;2023-08-21T00:51:26;21.77;;;19.88;;
68168;SDS011;54981;50.206;15.978;2023-08-21T00:53:56;19.73;;;18.02;;
68168;SDS011;54981;50.206;15.978;2023-08-21T00:56:27;20.40;;;18.50;;
68168;SDS011;54981;50.206;15.978;2023-08-21T00:58:58;20.38;;;18.48;;
68168;SDS011;54981;50.206;15.978;2023-08-21T01:01:28;19.75;;;17.83;;
68168;SDS011;54981;50.206;15.978;2023-08-21T01:03:59;19.83;;;17.95;;
68168;SDS011;54981;50.206;15.978;2023-08-21T01:06:29;20.13;;;18.33;;
68168;SDS011;54981;50.206;15.978;2023-08-21T01:09:13;21.48;;;19.58;;
68168;SDS011;54981;50.206;15.978;2023-08-21T01:12:04;20.63;;;18.67;;
68168;SDS011;54981;50.206;15.978;2023-08-21T01:14:48;20.70;;;18.88;;
68168;SDS011;54981;50.206;15.978;2023-08-21T01:17:23;22.33;;;19.85;;
68168;SDS011;54981;50.206;15.978;2023-08-21T01:19:59;20.55;;;18.55;;
68168;SDS011;54981;50.206;15.978;2023-08-21T01:22:37;22.65;;;20.30;;
68168;SDS011;54981;50.206;15.978;2023-08-21T01:25:09;22.67;;;20.58;;
68168;SDS011;54981;50.206;15.978;2023-08-21T01:27:43;21.52;;;19.52;;
68168;SDS011;54981;50.206;15.978;2023-08-21T01:30:16;21.05;;;18.98;;
68168;SDS011;54981;50.206;15.978;2023-08-21T01:33:00;20.67;;;18.88;;
68168;SDS011;54981;50.206;15.978;2023-08-21T01:35:36;19.80;;;18.05;;
68168;SDS011;54981;50.206;15.978;2023-08-21T01:38:07;20.65;;;18.75;;
68168;SDS011;54981;50.206;15.978;2023-08-21T01:40:38;20.63;;;18.83;;
68168;SDS011;54981;50.206;15.978;2023-08-21T01:43:09;20.77;;;18.98;;
68168;SDS011;54981;50.206;15.978;2023-08-21T01:45:40;21.35;;;19.55;;
68168;SDS011;54981;50.206;15.978;2023-08-21T01:48:10;21.33;;;19.25;;
68168;SDS011;54981;50.206;15.978;2023-08-21T01:50:40;22.48;;;20.38;;
68168;SDS011;54981;50.206;15.978;2023-08-21T01:53:11;22.48;;;20.48;;
68168;SDS011;54981;50.206;15.978;2023-08-21T01:55:41;21.85;;;19.73;;
68168;SDS011;54981;50.206;15.978;2023-08-21T01:58:11;21.60;;;19.60;;
68168;SDS011;54981;50.206;15.978;2023-08-21T02:00:45;20.67;;;18.42;;
68168;SDS011;54981;50.206;15.978;2023-08-21T02:03:16;20.90;;;18.95;;
68168;SDS011;54981;50.206;15.978;2023-08-21T02:05:46;19.70;;;17.80;;
68168;SDS011;54981;50.206;15.978;2023-08-21T02:08:16;21.17;;;19.17;;
68168;SDS011;54981;50.206;15.978;2023-08-21T02:10:50;20.15;;;18.42;;
68168;SDS011;54981;50.206;15.978;2023-08-21T02:13:21;19.58;;;17.75;;
68168;SDS011;54981;50.206;15.978;2023-08-21T02:15:52;22.05;;;19.92;;
68168;SDS011;54981;50.206;15.978;2023-08-21T02:18:22;22.50;;;20.48;;
68168;SDS011;54981;50.206;15.978;2023-08-21T02:20:52;20.88;;;18.95;;
68168;SDS011;54981;50.206;15.978;2023-08-21T02:23:23;19.98;;;18.27;;
68168;SDS011;54981;50.206;15.978;2023-08-21T02:25:54;23.17;;;20.92;;
68168;SDS011;54981;50.206;15.978;2023-08-21T02:28:24;20.13;;;18.33;;
68168;SDS011;54981;50.206;15.978;2023-08-21T02:30:55;20.77;;;18.95;;
68168;SDS011;54981;50.206;15.978;2023-08-21T02:33:25;22.52;;;20.40;;
68168;SDS011;54981;50.206;15.978;2023-08-21T02:35:55;23.77;;;21.52;;
68168;SDS011;54981;50.206;15.978;2023-08-21T02:38:26;21.42;;;19.35;;
68168;SDS011;54981;50.206;15.978;2023-08-21T02:40:56;21.77;;;19.88;;
68168;SDS011;54981;50.206;15.978;2023-08-21T02:43:27;22.00;;;20.00;;
68168;SDS011;54981;50.206;15.978;2023-08-21T02:45:57;20.55;;;18.65;;
68168;SDS011;54981;50.206;15.978;2023-08-21T02:48:27;23.58;;;21.42;;
68168;SDS011;54981;50.206;15.978;2023-08-21T02:50:58;21.35;;;19.45;;
68168;SDS011;54981;50.206;15.978;2023-08-21T02:53:29;21.92;;;19.73;;
68168;SDS011;54981;50.206;15.978;2023-08-21T02:55:59;21.23;;;19.02;;
68168;SDS011;54981;50.206;15.978;2023-08-21T02:58:30;22.02;;;20.13;;
68168;SDS011;54981;50.206;15.978;2023-08-21T03:01:00;22.60;;;20.70;;
68168;SDS011;54981;50.206;15.978;2023-08-21T03:03:30;22.90;;;20.80;;
68168;SDS011;54981;50.206;15.978;2023-08-21T03:06:02;23.80;;;21.70;;
68168;SDS011;54981;50.206;15.978;2023-08-21T03:08:33;23.30;;;21.20;;
68168;SDS011;54981;50.206;15.978;2023-08-21T03:11:03;24.58;;;22.27;;
68168;SDS011;54981;50.206;15.978;2023-08-21T03:13:33;23.02;;;20.73;;
68168;SDS011;54981;50.206;15.978;2023-08-21T03:16:04;21.92;;;19.98;;
68168;SDS011;54981;50.206;15.978;2023-08-21T03:18:53;22.90;;;20.73;;
68168;SDS011;54981;50.206;15.978;2023-08-21T03:21:25;21.85;;;19.63;;
68168;SDS011;54981;50.206;15.978;2023-08-21T03:23:57;22.10;;;20.10;;
68168;SDS011;54981;50.206;15.978;2023-08-21T03:26:29;24.55;;;22.33;;
68168;SDS011;54981;50.206;15.978;2023-08-21T03:28:59;25.23;;;23.05;;
68168;SDS011;54981;50.206;15.978;2023-08-21T03:31:30;23.15;;;21.10;;
68168;SDS011;54981;50.206;15.978;2023-08-21T03:34:01;23.33;;;21.20;;
68168;SDS011;54981;50.206;15.978;2023-08-21T03:36:32;22.50;;;20.50;;
68168;SDS011;54981;50.206;15.978;2023-08-21T03:39:02;24.42;;;22.02;;
68168;SDS011;54981;50.206;15.978;2023-08-21T03:41:36;22.85;;;20.85;;
68168;SDS011;54981;50.206;15.978;2023-08-21T03:44:06;23.05;;;20.85;;
68168;SDS011;54981;50.206;15.978;2023-08-21T03:46:37;23.30;;;20.98;;
68168;SDS011;54981;50.206;15.978;2023-08-21T03:49:07;24.92;;;22.65;;
68168;SDS011;54981;50.206;15.978;2023-08-21T03:51:37;24.25;;;22.15;;
68168;SDS011;54981;50.206;15.978;2023-08-21T03:54:08;22.48;;;20.27;;
68168;SDS011;54981;50.206;15.978;2023-08-21T03:56:39;23.45;;;21.15;;
68168;SDS011;54981;50.206;15.978;2023-08-21T03:59:09;23.35;;;21.27;;
68168;SDS011;54981;50.206;15.978;2023-08-21T04:01:39;25.48;;;23.15;;
68168;SDS011;54981;50.206;15.978;2023-08-21T04:04:10;23.10;;;21.00;;
68168;SDS011;54981;50.206;15.978;2023-08-21T04:06:41;23.30;;;21.30;;
68168;SDS011;54981;50.206;15.978;2023-08-21T04:09:11;22.35;;;20.27;;
68168;SDS011;54981;50.206;15.978;2023-08-21T04:11:41;23.25;;;20.95;;
68168;SDS011;54981;50.206;15.978;2023-08-21T04:14:12;22.58;;;20.42;;
68168;SDS011;54981;50.206;15.978;2023-08-21T04:16:42;22.52;;;20.45;;
68168;SDS011;54981;50.206;15.978;2023-08-21T04:19:12;21.80;;;19.90;;
68168;SDS011;54981;50.206;15.978;2023-08-21T04:21:43;19.95;;;18.25;;
68168;SDS011;54981;50.206;15.978;2023-08-21T04:24:13;21.38;;;19.48;;
68168;SDS011;54981;50.206;15.978;2023-08-21T04:26:44;22.27;;;20.20;;
68168;SDS011;54981;50.206;15.978;2023-08-21T04:29:14;22.02;;;20.00;;
68168;SDS011;54981;50.206;15.978;2023-08-21T04:31:44;22.45;;;20.35;;
68168;SDS011;54981;50.206;15.978;2023-08-21T04:34:15;22.58;;;20.58;;
68168;SDS011;54981;50.206;15.978;2023-08-21T04:36:45;23.48;;;21.15;;
68168;SDS011;54981;50.206;15.978;2023-08-21T04:39:15;22.60;;;20.55;;
68168;SDS011;54981;50.206;15.978;2023-08-21T04:41:46;23.95;;;21.75;;
68168;SDS011;54981;50.206;15.978;2023-08-21T04:44:17;21.50;;;19.60;;
68168;SDS011;54981;50.206;15.978;2023-08-21T04:46:48;23.65;;;21.45;;
68168;SDS011;54981;50.206;15.978;2023-08-21T04:49:20;22.40;;;20.20;;
68168;SDS011;54981;50.206;15.978;2023-08-21T04:51:50;23.65;;;21.35;;
68168;SDS011;54981;50.206;15.978;2023-08-21T04:54:21;24.42;;;22.23;;
68168;SDS011;54981;50.206;15.978;2023-08-21T04:56:51;25.58;;;23.27;;
68168;SDS011;54981;50.206;15.978;2023-08-21T04:59:21;24.85;;;22.48;;
68168;SDS011;54981;50.206;15.978;2023-08-21T05:01:52;26.60;;;24.17;;
68168;SDS011;54981;50.206;15.978;2023-08-21T05:04:22;25.02;;;22.73;;
68168;SDS011;54981;50.206;15.978;2023-08-21T05:06:52;25.23;;;22.92;;
68168;SDS011;54981;50.206;15.978;2023-08-21T05:09:23;26.00;;;23.60;;
68168;SDS011;54981;50.206;15.978;2023-08-21T05:11:53;28.02;;;25.63;;
68168;SDS011;54981;50.206;15.978;2023-08-21T05:14:24;28.45;;;25.83;;
68168;SDS011;54981;50.206;15.978;2023-08-21T05:16:55;25.80;;;23.40;;
68168;SDS011;54981;50.206;15.978;2023-08-21T05:19:25;25.17;;;22.85;;
68168;SDS011;54981;50.206;15.978;2023-08-21T05:21:55;27.10;;;24.60;;
68168;SDS011;54981;50.206;15.978;2023-08-21T05:24:26;28.25;;;25.65;;
68168;SDS011;54981;50.206;15.978;2023-08-21T05:26:56;27.33;;;24.90;;
68168;SDS011;54981;50.206;15.978;2023-08-21T05:29:26;25.83;;;23.42;;
68168;SDS011;54981;50.206;15.978;2023-08-21T05:31:57;26.00;;;23.55;;
68168;SDS011;54981;50.206;15.978;2023-08-21T05:34:27;25.83;;;23.33;;
68168;SDS011;54981;50.206;15.978;2023-08-21T05:36:58;24.52;;;21.95;;
68168;SDS011;54981;50.206;15.978;2023-08-21T05:39:29;23.27;;;21.05;;
68168;SDS011;54981;50.206;15.978;2023-08-21T05:42:00;23.67;;;21.52;;
68168;SDS011;54981;50.206;15.978;2023-08-21T05:44:30;23.73;;;21.58;;
68168;SDS011;54981;50.206;15.978;2023-08-21T05:47:01;22.02;;;19.88;;
68168;SDS011;54981;50.206;15.978;2023-08-21T05:49:31;21.42;;;19.48;;
68168;SDS011;54981;50.206;15.978;2023-08-21T05:52:01;20.67;;;18.67;;
68168;SDS011;54981;50.206;15.978;2023-08-21T05:54:32;20.60;;;18.73;;
68168;SDS011;54981;50.206;15.978;2023-08-21T05:57:02;20.63;;;18.73;;
68168;SDS011;54981;50.206;15.978;2023-08-21T05:59:33;20.33;;;18.23;;
68168;SDS011;54981;50.206;15.978;2023-08-21T06:02:03;19.80;;;17.92;;
68168;SDS011;54981;50.206;15.978;2023-08-21T06:04:34;18.20;;;16.50;;
68168;SDS011;54981;50.206;15.978;2023-08-21T06:07:04;18.20;;;16.33;;
68168;SDS011;54981;50.206;15.978;2023-08-21T06:09:35;18.35;;;16.55;;
68168;SDS011;54981;50.206;15.978;2023-08-21T06:12:06;17.30;;;15.68;;
68168;SDS011;54981;50.206;15.978;2023-08-21T06:14:36;18.58;;;16.77;;
68168;SDS011;54981;50.206;15.978;2023-08-21T06:17:08;19.33;;;17.42;;
68168;SDS011;54981;50.206;15.978;2023-08-21T06:19:39;18.80;;;16.85;;
68168;SDS011;54981;50.206;15.978;2023-08-21T06:22:10;19.05;;;15.98;;
68168;SDS011;54981;50.206;15.978;2023-08-21T06:24:40;18.38;;;16.63;;
68168;SDS011;54981;50.206;15.978;2023-08-21T06:27:11;18.63;;;16.77;;
68168;SDS011;54981;50.206;15.978;2023-08-21T06:29:41;18.92;;;15.55;;
68168;SDS011;54981;50.206;15.978;2023-08-21T06:32:12;18.58;;;16.50;;
68168;SDS011;54981;50.206;15.978;2023-08-21T06:34:42;17.35;;;15.63;;
68168;SDS011;54981;50.206;15.978;2023-08-21T06:37:13;19.02;;;17.25;;
68168;SDS011;54981;50.206;15.978;2023-08-21T06:39:44;16.80;;;15.00;;
68168;SDS011;54981;50.206;15.978;2023-08-21T06:42:14;18.10;;;16.48;;
68168;SDS011;54981;50.206;15.978;2023-08-21T06:44:44;19.17;;;17.38;;
68168;SDS011;54981;50.206;15.978;2023-08-21T06:47:15;19.45;;;17.60;;
68168;SDS011;54981;50.206;15.978;2023-08-21T06:49:45;19.13;;;17.05;;
68168;SDS011;54981;50.206;15.978;2023-08-21T06:52:15;17.27;;;15.60;;
68168;SDS011;54981;50.206;15.978;2023-08-21T06:54:46;16.95;;;14.95;;
68168;SDS011;54981;50.206;15.978;2023-08-21T06:57:16;16.77;;;15.27;;
68168;SDS011;54981;50.206;15.978;2023-08-21T06:59:47;17.20;;;15.57;;
68168;SDS011;54981;50.206;15.978;2023-08-21T07:02:17;19.85;;;15.77;;
68168;SDS011;54981;50.206;15.978;2023-08-21T07:04:47;16.75;;;15.15;;
68168;SDS011;54981;50.206;15.978;2023-08-21T07:07:18;17.33;;;15.60;;
68168;SDS011;54981;50.206;15.978;2023-08-21T07:09:49;16.90;;;15.10;;
68168;SDS011;54981;50.206;15.978;2023-08-21T07:12:21;16.85;;;14.23;;
68168;SDS011;54981;50.206;15.978;2023-08-21T07:14:52;16.95;;;15.27;;
68168;SDS011;54981;50.206;15.978;2023-08-21T07:17:22;15.02;;;13.63;;
68168;SDS011;54981;50.206;15.978;2023-08-21T07:19:53;15.52;;;13.98;;
68168;SDS011;54981;50.206;15.978;2023-08-21T07:22:23;16.33;;;14.82;;
68168;SDS011;54981;50.206;15.978;2023-08-21T07:24:54;16.88;;;14.48;;
68168;SDS011;54981;50.206;15.978;2023-08-21T07:27:24;15.25;;;13.63;;
68168;SDS011;54981;50.206;15.978;2023-08-21T07:29:55;15.55;;;13.88;;
68168;SDS011;54981;50.206;15.978;2023-08-21T07:32:28;15.00;;;13.40;;
68168;SDS011;54981;50.206;15.978;2023-08-21T07:34:59;15.52;;;13.27;;
68168;SDS011;54981;50.206;15.978;2023-08-21T07:37:32;15.13;;;13.63;;
68168;SDS011;54981;50.206;15.978;2023-08-21T07:40:05;14.88;;;13.48;;
68168;SDS011;54981;50.206;15.978;2023-08-21T07:42:37;13.93;;;12.63;;
68168;SDS011;54981;50.206;15.978;2023-08-21T07:45:10;13.18;;;11.80;;
68168;SDS011;54981;50.206;15.978;2023-08-21T07:47:41;13.20;;;12.00;;
68168;SDS011;54981;50.206;15.978;2023-08-21T07:50:11;12.90;;;11.60;;
68168;SDS011;54981;50.206;15.978;2023-08-21T07:52:44;14.02;;;12.50;;
68168;SDS011;54981;50.206;15.978;2023-08-21T07:55:14;14.52;;;13.05;;
68168;SDS011;54981;50.206;15.978;2023-08-21T07:57:44;14.18;;;12.77;;
68168;SDS011;54981;50.206;15.978;2023-08-21T08:00:15;14.18;;;12.82;;
68168;SDS011;54981;50.206;15.978;2023-08-21T08:02:45;13.30;;;12.10;;
68168;SDS011;54981;50.206;15.978;2023-08-21T08:05:16;13.48;;;12.25;;
68168;SDS011;54981;50.206;15.978;2023-08-21T08:07:46;13.80;;;12.45;;
68168;SDS011;54981;50.206;15.978;2023-08-21T08:10:16;13.57;;;12.32;;
68168;SDS011;54981;50.206;15.978;2023-08-21T08:12:47;13.90;;;12.50;;
68168;SDS011;54981;50.206;15.978;2023-08-21T08:15:17;14.15;;;12.80;;
68168;SDS011;54981;50.206;15.978;2023-08-21T08:17:48;14.75;;;11.77;;
68168;SDS011;54981;50.206;15.978;2023-08-21T08:20:23;15.05;;;12.20;;
68168;SDS011;54981;50.206;15.978;2023-08-21T08:22:53;13.27;;;11.98;;
68168;SDS011;54981;50.206;15.978;2023-08-21T08:25:23;14.20;;;11.98;;
68168;SDS011;54981;50.206;15.978;2023-08-21T08:27:54;12.57;;;11.38;;
68168;SDS011;54981;50.206;15.978;2023-08-21T08:30:24;12.35;;;11.20;;
68168;SDS011;54981;50.206;15.978;2023-08-21T08:32:58;14.52;;;11.80;;
68168;SDS011;54981;50.206;15.978;2023-08-21T08:35:28;12.88;;;11.50;;
68168;SDS011;54981;50.206;15.978;2023-08-21T08:37:59;12.95;;;11.65;;
68168;SDS011;54981;50.206;15.978;2023-08-21T08:40:29;13.82;;;12.40;;
68168;SDS011;54981;50.206;15.978;2023-08-21T08:43:00;13.40;;;12.05;;
68168;SDS011;54981;50.206;15.978;2023-08-21T08:45:32;13.32;;;12.00;;
68168;SDS011;54981;50.206;15.978;2023-08-21T08:48:04;13.75;;;11.63;;
68168;SDS011;54981;50.206;15.978;2023-08-21T08:50:35;13.90;;;12.35;;
68168;SDS011;54981;50.206;15.978;2023-08-21T08:53:10;12.55;;;11.35;;
68168;SDS011;54981;50.206;15.978;2023-08-21T08:55:42;12.95;;;11.27;;
68168;SDS011;54981;50.206;15.978;2023-08-21T08:58:13;13.02;;;11.65;;
68168;SDS011;54981;50.206;15.978;2023-08-21T09:00:44;14.35;;;11.88;;
68168;SDS011;54981;50.206;15.978;2023-08-21T09:03:14;14.85;;;12.20;;
68168;SDS011;54981;50.206;15.978;2023-08-21T09:05:45;13.98;;;11.82;;
68168;SDS011;54981;50.206;15.978;2023-08-21T09:08:18;12.07;;;10.97;;
68168;SDS011;54981;50.206;15.978;2023-08-21T09:10:51;13.20;;;11.90;;
68168;SDS011;54981;50.206;15.978;2023-08-21T09:13:24;12.60;;;11.32;;
68168;SDS011;54981;50.206;15.978;2023-08-21T09:15:58;12.50;;;11.20;;
68168;SDS011;54981;50.206;15.978;2023-08-21T09:18:29;13.50;;;11.32;;
68168;SDS011;54981;50.206;15.978;2023-08-21T09:21:01;12.70;;;11.35;;
68168;SDS011;54981;50.206;15.978;2023-08-21T09:23:32;12.27;;;10.90;;
68168;SDS011;54981;50.206;15.978;2023-08-21T09:26:02;11.82;;;10.57;;
68168;SDS011;54981;50.206;15.978;2023-08-21T09:28:32;13.52;;;12.23;;
68168;SDS011;54981;50.206;15.978;2023-08-21T09:31:04;13.48;;;12.07;;
68168;SDS011;54981;50.206;15.978;2023-08-21T09:33:35;12.40;;;11.20;;
68168;SDS011;54981;50.206;15.978;2023-08-21T09:36:05;13.55;;;11.93;;
68168;SDS011;54981;50.206;15.978;2023-08-21T09:38:38;12.90;;;11.60;;
68168;SDS011;54981;50.206;15.978;2023-08-21T09:41:10;12.98;;;11.77;;
68168;SDS011;54981;50.206;15.978;2023-08-21T09:43:43;15.00;;;11.88;;
68168;SDS011;54981;50.206;15.978;2023-08-21T09:46:14;12.93;;;11.73;;
68168;SDS011;54981;50.206;15.978;2023-08-21T09:48:53;13.55;;;11.00;;
68168;SDS011;54981;50.206;15.978;2023-08-21T09:51:24;13.93;;;11.40;;
68168;SDS011;54981;50.206;15.978;2023-08-21T09:53:57;13.55;;;11.85;;
68168;SDS011;54981;50.206;15.978;2023-08-21T09:56:28;12.90;;;11.60;;
68168;SDS011;54981;50.206;15.978;2023-08-21T09:58:58;12.70;;;10.93;;
68168;SDS011;54981;50.206;15.978;2023-08-21T10:01:29;13.43;;;10.73;;
68168;SDS011;54981;50.206;15.978;2023-08-21T10:04:04;12.52;;;11.27;;
68168;SDS011;54981;50.206;15.978;2023-08-21T10:06:36;13.65;;;11.95;;
68168;SDS011;54981;50.206;15.978;2023-08-21T10:09:08;12.93;;;11.70;;
68168;SDS011;54981;50.206;15.978;2023-08-21T10:11:39;12.75;;;11.55;;
68168;SDS011;54981;50.206;15.978;2023-08-21T10:14:10;12.90;;;11.57;;
68168;SDS011;54981;50.206;15.978;2023-08-21T10:16:41;14.55;;;12.95;;
68168;SDS011;54981;50.206;15.978;2023-08-21T10:19:13;13.60;;;11.88;;
68168;SDS011;54981;50.206;15.978;2023-08-21T10:21:48;13.52;;;12.23;;
68168;SDS011;54981;50.206;15.978;2023-08-21T10:24:28;15.48;;;12.70;;
68168;SDS011;54981;50.206;15.978;2023-08-21T10:27:03;15.95;;;12.75;;
68168;SDS011;54981;50.206;15.978;2023-08-21T10:29:34;14.68;;;12.00;;
68168;SDS011;54981;50.206;15.978;2023-08-21T10:32:04;13.55;;;12.15;;
68168;SDS011;54981;50.206;15.978;2023-08-21T10:34:36;13.45;;;12.07;;
68168;SDS011;54981;50.206;15.978;2023-08-21T10:37:09;13.32;;;12.02;;
68168;SDS011;54981;50.206;15.978;2023-08-21T10:39:55;14.32;;;12.50;;
68168;SDS011;54981;50.206;15.978;2023-08-21T10:42:39;12.65;;;11.27;;
68168;SDS011;54981;50.206;15.978;2023-08-21T10:45:11;14.85;;;10.55;;
68168;SDS011;54981;50.206;15.978;2023-08-21T10:47:42;12.63;;;11.18;;
68168;SDS011;54981;50.206;15.978;2023-08-21T10:50:13;14.15;;;12.73;;
68168;SDS011;54981;50.206;15.978;2023-08-21T10:52:43;13.45;;;11.25;;
68168;SDS011;54981;50.206;15.978;2023-08-21T10:55:17;12.45;;;11.13;;
68168;SDS011;54981;50.206;15.978;2023-08-21T10:57:48;18.20;;;12.27;;
68168;SDS011;54981;50.206;15.978;2023-08-21T11:00:19;16.48;;;12.27;;
68168;SDS011;54981;50.206;15.978;2023-08-21T11:02:50;14.73;;;11.98;;
68168;SDS011;54981;50.206;15.978;2023-08-21T11:05:20;14.35;;;11.40;;
68168;SDS011;54981;50.206;15.978;2023-08-21T11:07:51;13.10;;;10.23;;
68168;SDS011;54981;50.206;15.978;2023-08-21T11:10:22;13.13;;;10.38;;
68168;SDS011;54981;50.206;15.978;2023-08-21T11:12:54;14.63;;;11.43;;
68168;SDS011;54981;50.206;15.978;2023-08-21T11:15:27;17.73;;;11.85;;
68168;SDS011;54981;50.206;15.978;2023-08-21T11:17:59;12.90;;;10.80;;
68168;SDS011;54981;50.206;15.978;2023-08-21T11:20:33;12.43;;;10.80;;
68168;SDS011;54981;50.206;15.978;2023-08-21T11:23:05;15.48;;;11.80;;
68168;SDS011;54981;50.206;15.978;2023-08-21T11:25:39;17.03;;;10.43;;
68168;SDS011;54981;50.206;15.978;2023-08-21T11:28:10;14.10;;;11.02;;
68168;SDS011;54981;50.206;15.978;2023-08-21T11:30:42;13.80;;;10.70;;
68168;SDS011;54981;50.206;15.978;2023-08-21T11:33:13;16.13;;;11.77;;
68168;SDS011;54981;50.206;15.978;2023-08-21T11:35:43;13.63;;;10.45;;
68168;SDS011;54981;50.206;15.978;2023-08-21T11:38:15;13.10;;;11.48;;
68168;SDS011;54981;50.206;15.978;2023-08-21T11:40:51;12.73;;;10.82;;
68168;SDS011;54981;50.206;15.978;2023-08-21T11:46:09;15.63;;;11.52;;
68168;SDS011;54981;50.206;15.978;2023-08-21T11:48:41;13.57;;;10.82;;
68168;SDS011;54981;50.206;15.978;2023-08-21T11:51:11;12.73;;;11.43;;
68168;SDS011;54981;50.206;15.978;2023-08-21T11:53:42;12.95;;;11.65;;
68168;SDS011;54981;50.206;15.978;2023-08-21T11:56:13;12.73;;;11.52;;
68168;SDS011;54981;50.206;15.978;2023-08-21T11:58:47;15.20;;;12.20;;
68168;SDS011;54981;50.206;15.978;2023-08-21T12:01:19;14.25;;;12.25;;
68168;SDS011;54981;50.206;15.978;2023-08-21T12:03:50;16.17;;;12.48;;
68168;SDS011;54981;50.206;15.978;2023-08-21T12:06:24;13.00;;;11.25;;
68168;SDS011;54981;50.206;15.978;2023-08-21T12:08:56;13.35;;;11.90;;
68168;SDS011;54981;50.206;15.978;2023-08-21T12:11:26;14.68;;;10.50;;
68168;SDS011;54981;50.206;15.978;2023-08-21T12:13:57;13.57;;;10.80;;
68168;SDS011;54981;50.206;15.978;2023-08-21T12:16:27;14.48;;;11.18;;
68168;SDS011;54981;50.206;15.978;2023-08-21T12:18:58;14.65;;;11.38;;
68168;SDS011;54981;50.206;15.978;2023-08-21T12:21:28;15.63;;;11.48;;
68168;SDS011;54981;50.206;15.978;2023-08-21T12:23:59;15.27;;;11.20;;
68168;SDS011;54981;50.206;15.978;2023-08-21T12:26:29;12.50;;;10.27;;
68168;SDS011;54981;50.206;15.978;2023-08-21T12:29:00;13.82;;;10.30;;
68168;SDS011;54981;50.206;15.978;2023-08-21T12:31:30;13.00;;;10.30;;
68168;SDS011;54981;50.206;15.978;2023-08-21T12:34:01;11.27;;;10.07;;
68168;SDS011;54981;50.206;15.978;2023-08-21T12:36:33;10.63;;;9.52;;
68168;SDS011;54981;50.206;15.978;2023-08-21T12:39:05;14.23;;;10.35;;
68168;SDS011;54981;50.206;15.978;2023-08-21T12:42:04;10.90;;;9.73;;
68168;SDS011;54981;50.206;15.978;2023-08-21T12:44:34;14.90;;;10.13;;
68168;SDS011;54981;50.206;15.978;2023-08-21T12:47:05;13.02;;;9.90;;
68168;SDS011;54981;50.206;15.978;2023-08-21T12:49:35;10.65;;;9.55;;
68168;SDS011;54981;50.206;15.978;2023-08-21T12:52:06;13.55;;;10.32;;
68168;SDS011;54981;50.206;15.978;2023-08-21T12:54:37;13.30;;;10.10;;
68168;SDS011;54981;50.206;15.978;2023-08-21T12:57:08;11.40;;;10.20;;
68168;SDS011;54981;50.206;15.978;2023-08-21T12:59:38;13.65;;;10.10;;
68168;SDS011;54981;50.206;15.978;2023-08-21T13:02:09;11.10;;;9.50;;
68168;SDS011;54981;50.206;15.978;2023-08-21T13:04:39;11.85;;;9.80;;
68168;SDS011;54981;50.206;15.978;2023-08-21T13:07:09;11.30;;;9.70;;
68168;SDS011;54981;50.206;15.978;2023-08-21T13:09:40;12.57;;;10.40;;
68168;SDS011;54981;50.206;15.978;2023-08-21T13:12:10;11.75;;;9.77;;
68168;SDS011;54981;50.206;15.978;2023-08-21T13:14:40;12.00;;;9.63;;
68168;SDS011;54981;50.206;15.978;2023-08-21T13:17:11;12.38;;;9.88;;
68168;SDS011;54981;50.206;15.978;2023-08-21T13:19:42;10.70;;;8.52;;
68168;SDS011;54981;50.206;15.978;2023-08-21T13:22:12;11.45;;;8.13;;
68168;SDS011;54981;50.206;15.978;2023-08-21T13:24:43;10.65;;;7.88;;
68168;SDS011;54981;50.206;15.978;2023-08-21T13:27:14;8.88;;;7.55;;
68168;SDS011;54981;50.206;15.978;2023-08-21T13:29:45;11.50;;;8.35;;
68168;SDS011;54981;50.206;15.978;2023-08-21T13:32:16;12.85;;;8.45;;
68168;SDS011;54981;50.206;15.978;2023-08-21T13:34:46;12.47;;;8.80;;
68168;SDS011;54981;50.206;15.978;2023-08-21T13:37:17;15.40;;;9.70;;
68168;SDS011;54981;50.206;15.978;2023-08-21T13:39:47;11.02;;;8.25;;
68168;SDS011;54981;50.206;15.978;2023-08-21T13:42:17;10.35;;;7.72;;
68168;SDS011;54981;50.206;15.978;2023-08-21T13:44:48;12.35;;;9.48;;
68168;SDS011;54981;50.206;15.978;2023-08-21T13:47:18;9.90;;;7.88;;
68168;SDS011;54981;50.206;15.978;2023-08-21T13:49:48;9.82;;;8.35;;
68168;SDS011;54981;50.206;15.978;2023-08-21T13:52:19;9.75;;;8.40;;
68168;SDS011;54981;50.206;15.978;2023-08-21T13:54:49;9.80;;;8.82;;
68168;SDS011;54981;50.206;15.978;2023-08-21T13:57:20;10.15;;;8.38;;
68168;SDS011;54981;50.206;15.978;2023-08-21T13:59:50;9.70;;;7.97;;
68168;SDS011;54981;50.206;15.978;2023-08-21T14:02:20;9.77;;;8.10;;
68168;SDS011;54981;50.206;15.978;2023-08-21T14:04:53;10.87;;;8.57;;
68168;SDS011;54981;50.206;15.978;2023-08-21T14:07:23;11.27;;;8.65;;
68168;SDS011;54981;50.206;15.978;2023-08-21T14:09:53;11.30;;;8.32;;
68168;SDS011;54981;50.206;15.978;2023-08-21T14:12:24;9.93;;;8.40;;
68168;SDS011;54981;50.206;15.978;2023-08-21T14:14:54;11.93;;;8.82;;
68168;SDS011;54981;50.206;15.978;2023-08-21T14:17:25;11.40;;;8.95;;
68168;SDS011;54981;50.206;15.978;2023-08-21T14:19:55;13.57;;;8.82;;
68168;SDS011;54981;50.206;15.978;2023-08-21T14:22:26;12.32;;;8.88;;
68168;SDS011;54981;50.206;15.978;2023-08-21T14:24:56;11.85;;;8.48;;
68168;SDS011;54981;50.206;15.978;2023-08-21T14:27:27;10.95;;;8.90;;
68168;SDS011;54981;50.206;15.978;2023-08-21T14:29:57;12.38;;;8.95;;
68168;SDS011;54981;50.206;15.978;2023-08-21T14:32:28;11.13;;;8.95;;
68168;SDS011;54981;50.206;15.978;2023-08-21T14:34:59;11.85;;;8.40;;
68168;SDS011;54981;50.206;15.978;2023-08-21T14:39:29;12.13;;;7.75;;